createdAt,value
2017-12-12T00:00:55.924Z,45.15
2017-12-12T00:03:21.696Z,45.19
2017-12-12T00:05:47.474Z,45.19
2017-12-12T00:08:13.269Z,45.23
2017-12-12T00:10:39.048Z,45.27
2017-12-12T00:13:04.873Z,45.03
2017-12-12T00:15:30.648Z,45.26
2017-12-12T00:17:56.415Z,45.27
2017-12-12T00:20:22.250Z,45.31
2017-12-12T00:22:48.142Z,45.28
2017-12-12T00:25:13.912Z,45.34
2017-12-12T00:27:39.692Z,45.23
2017-12-12T00:30:05.473Z,45.17
2017-12-12T00:32:31.248Z,45.33
2017-12-12T00:34:57.056Z,45.39
2017-12-12T00:37:22.823Z,45.37
2017-12-12T00:39:48.600Z,45.57
2017-12-12T00:42:14.370Z,45.69
2017-12-12T00:44:40.144Z,45.32
2017-12-12T00:47:05.924Z,45.33
2017-12-12T00:49:31.705Z,45.58
2017-12-12T00:51:57.540Z,45.19
2017-12-12T00:54:23.316Z,45.12
2017-12-12T00:56:49.116Z,45.02
2017-12-12T00:59:14.900Z,45.15
2017-12-12T01:01:40.680Z,45.03
2017-12-12T01:04:06.459Z,45.28
2017-12-12T01:06:32.236Z,45.28
2017-12-12T01:08:58.025Z,45.24
2017-12-12T01:11:23.800Z,45.41
2017-12-12T01:13:49.596Z,45.08
2017-12-12T01:16:15.480Z,45.28
2017-12-12T01:18:41.350Z,45.34
2017-12-12T01:21:07.112Z,45.10
2017-12-12T01:23:32.927Z,45.21
2017-12-12T01:25:58.762Z,45.30
2017-12-12T01:28:24.540Z,45.37
2017-12-12T01:30:50.321Z,45.43
2017-12-12T01:33:16.096Z,45.15
2017-12-12T01:35:41.882Z,45.35
2017-12-12T01:38:07.689Z,45.33
2017-12-12T01:40:33.504Z,45.39
2017-12-12T01:42:59.301Z,45.81
2017-12-12T01:45:25.121Z,45.49
2017-12-12T01:47:50.911Z,45.38
2017-12-12T01:50:16.688Z,45.28
2017-12-12T01:52:42.468Z,45.25
2017-12-12T01:55:08.255Z,45.52
2017-12-12T01:57:34.043Z,45.50
2017-12-12T01:59:59.866Z,45.51
2017-12-12T02:02:25.699Z,45.35
2017-12-12T02:04:51.646Z,45.34
2017-12-12T02:07:17.440Z,45.51
2017-12-12T02:09:43.227Z,45.54
2017-12-12T02:12:09.015Z,45.51
2017-12-12T02:14:34.828Z,45.51
2017-12-12T02:17:00.603Z,45.52
2017-12-12T02:19:26.392Z,45.43
2017-12-12T02:21:52.175Z,45.79
2017-12-12T02:24:18.036Z,45.57
2017-12-12T02:26:43.852Z,45.63
2017-12-12T02:29:09.675Z,45.46
2017-12-12T02:31:35.524Z,45.52
2017-12-12T02:34:01.316Z,45.47
2017-12-12T02:36:27.261Z,45.46
2017-12-12T02:38:53.059Z,45.49
2017-12-12T02:41:18.851Z,45.53
2017-12-12T02:43:44.652Z,45.66
2017-12-12T02:46:10.472Z,45.62
2017-12-12T02:48:36.252Z,45.51
2017-12-12T02:53:34.475Z,45.47
2017-12-12T02:56:00.252Z,45.39
2017-12-12T02:58:26.031Z,45.50
2017-12-12T03:00:51.860Z,45.45
2017-12-12T03:03:17.643Z,45.53
2017-12-12T03:05:43.561Z,45.47
2017-12-12T03:08:09.379Z,45.72
2017-12-12T03:10:35.168Z,45.55
2017-12-12T03:13:01.010Z,45.53
2017-12-12T03:15:26.791Z,45.60
2017-12-12T03:17:52.583Z,45.63
2017-12-12T03:20:18.468Z,45.47
2017-12-12T03:22:44.243Z,45.68
2017-12-12T03:25:10.028Z,45.50
2017-12-12T03:27:35.805Z,45.55
2017-12-12T03:30:01.575Z,45.42
2017-12-12T03:32:27.356Z,45.73
2017-12-12T03:34:53.136Z,45.94
2017-12-12T03:37:18.920Z,45.56
2017-12-12T03:39:44.699Z,45.60
2017-12-12T03:42:10.498Z,45.55
2017-12-12T03:44:36.312Z,45.58
2017-12-12T03:47:02.092Z,45.64
2017-12-12T03:49:27.912Z,45.47
2017-12-12T03:51:53.707Z,45.45
2017-12-12T03:54:19.502Z,45.44
2017-12-12T03:56:45.272Z,45.70
2017-12-12T03:59:11.128Z,45.69
2017-12-12T04:01:36.952Z,45.88
2017-12-12T04:04:02.768Z,45.52
2017-12-12T04:06:28.756Z,45.44
2017-12-12T04:08:54.569Z,45.49
2017-12-12T04:11:20.351Z,45.57
2017-12-12T04:13:46.135Z,45.45
2017-12-12T04:16:11.920Z,45.39
2017-12-12T04:18:37.711Z,45.57
2017-12-12T04:21:03.508Z,45.56
2017-12-12T04:23:29.352Z,45.32
2017-12-12T04:25:55.128Z,45.50
2017-12-12T04:28:20.953Z,45.43
2017-12-12T04:30:46.748Z,45.33
2017-12-12T04:33:12.530Z,45.37
2017-12-12T04:35:38.420Z,45.48
2017-12-12T04:38:04.208Z,45.39
2017-12-12T04:40:30.109Z,45.31
2017-12-12T04:42:55.896Z,45.47
2017-12-12T04:45:21.685Z,45.39
2017-12-12T04:47:47.507Z,45.27
2017-12-12T04:50:13.307Z,45.37
2017-12-12T04:52:39.120Z,45.38
2017-12-12T04:55:04.949Z,45.36
2017-12-12T04:57:30.766Z,45.30
2017-12-12T04:59:56.543Z,45.18
2017-12-12T05:02:22.323Z,45.02
2017-12-12T05:04:48.139Z,45.33
2017-12-12T05:07:14.077Z,44.76
2017-12-12T05:09:39.912Z,44.85
2017-12-12T05:12:05.858Z,45.12
2017-12-12T05:14:31.632Z,44.96
2017-12-12T05:16:57.419Z,44.85
2017-12-12T05:19:23.204Z,44.81
2017-12-12T05:21:48.988Z,44.70
2017-12-12T05:24:14.770Z,44.88
2017-12-12T05:26:40.595Z,44.63
2017-12-12T05:29:06.425Z,44.72
2017-12-12T05:31:32.264Z,44.68
2017-12-12T05:33:58.052Z,45.12
2017-12-12T05:36:23.840Z,44.78
2017-12-12T05:38:49.749Z,44.93
2017-12-12T05:41:15.564Z,44.78
2017-12-12T05:43:41.343Z,44.74
2017-12-12T05:46:07.158Z,44.75
2017-12-12T05:48:32.956Z,45.03
2017-12-12T05:50:58.794Z,45.33
2017-12-12T05:53:24.587Z,44.99
2017-12-12T05:55:50.384Z,44.90
2017-12-12T05:58:16.184Z,44.91
2017-12-12T06:00:41.985Z,45.27
2017-12-12T06:03:07.777Z,45.11
2017-12-12T06:05:33.555Z,44.83
2017-12-12T06:07:59.359Z,44.82
2017-12-12T06:10:25.148Z,44.76
2017-12-12T06:12:50.935Z,44.63
2017-12-12T06:15:16.724Z,44.62
2017-12-12T06:17:42.530Z,44.34
2017-12-12T06:20:08.543Z,44.41
2017-12-12T06:22:34.345Z,44.30
2017-12-12T06:25:00.133Z,44.03
2017-12-12T06:27:25.944Z,44.48
2017-12-12T06:29:51.730Z,45.45
2017-12-12T06:32:17.603Z,45.77
2017-12-12T06:34:43.394Z,44.78
2017-12-12T06:37:09.340Z,45.13
2017-12-12T06:39:35.259Z,45.43
2017-12-12T06:42:01.068Z,45.49
2017-12-12T06:44:26.895Z,45.74
2017-12-12T06:46:52.743Z,45.08
2017-12-12T06:49:18.584Z,45.35
2017-12-12T06:51:44.388Z,46.20
2017-12-12T06:54:10.180Z,45.03
2017-12-12T06:56:36.018Z,44.78
2017-12-12T06:59:01.844Z,45.47
2017-12-12T07:01:27.684Z,44.92
2017-12-12T07:03:53.469Z,44.65
2017-12-12T07:06:19.256Z,46.53
2017-12-12T07:08:45.195Z,45.48
2017-12-12T07:11:10.984Z,46.33
2017-12-12T07:13:36.761Z,45.53
2017-12-12T07:16:02.557Z,45.35
2017-12-12T07:18:28.344Z,46.18
2017-12-12T07:20:54.127Z,46.85
2017-12-12T07:23:19.933Z,45.36
2017-12-12T07:25:45.744Z,46.01
2017-12-12T07:28:11.524Z,45.01
2017-12-12T07:30:37.306Z,44.92
2017-12-12T07:33:03.232Z,44.92
2017-12-12T07:35:29.016Z,44.84
2017-12-12T07:37:54.804Z,44.70
2017-12-12T07:40:20.617Z,44.71
2017-12-12T07:42:46.522Z,44.88
2017-12-12T07:45:12.319Z,45.49
2017-12-12T07:47:38.105Z,45.34
2017-12-12T07:50:03.876Z,45.46
2017-12-12T07:52:29.659Z,44.93
2017-12-12T07:54:55.435Z,44.68
2017-12-12T07:57:21.211Z,44.31
2017-12-12T08:02:44.448Z,46.57
2017-12-12T08:05:10.284Z,46.22
2017-12-12T08:07:36.099Z,45.81
2017-12-12T08:10:01.907Z,45.06
2017-12-12T08:12:27.715Z,44.79
2017-12-12T08:14:53.550Z,44.60
2017-12-12T08:17:19.336Z,44.86
2017-12-12T08:19:45.124Z,44.99
2017-12-12T08:22:12.203Z,45.02
2017-12-12T08:24:37.991Z,45.35
2017-12-12T08:27:14.347Z,44.53
2017-12-12T08:29:40.127Z,45.07
2017-12-12T08:32:05.939Z,46.05
2017-12-12T08:34:31.718Z,44.87
2017-12-12T08:36:57.595Z,45.33
2017-12-12T08:39:23.384Z,44.36
2017-12-12T08:41:49.163Z,44.29
2017-12-12T08:47:10.576Z,45.63
2017-12-12T08:49:36.376Z,44.95
2017-12-12T08:52:02.195Z,45.42
2017-12-12T08:54:28.008Z,44.95
2017-12-12T08:56:53.792Z,44.26
2017-12-12T08:59:19.572Z,44.19
2017-12-12T09:01:45.358Z,45.43
2017-12-12T09:04:11.139Z,46.19
2017-12-12T09:06:36.932Z,45.86
2017-12-12T09:09:02.756Z,45.71
2017-12-12T09:11:28.580Z,44.56
2017-12-12T09:13:54.360Z,45.37
2017-12-12T09:16:20.161Z,46.31
2017-12-12T09:18:45.956Z,45.42
2017-12-12T09:21:11.735Z,45.50
2017-12-12T09:23:43.100Z,45.41
2017-12-12T09:26:08.891Z,44.69
2017-12-12T09:28:34.678Z,45.46
2017-12-12T09:31:00.471Z,45.33
2017-12-12T09:33:26.304Z,45.27
2017-12-12T09:35:52.752Z,44.56
2017-12-12T09:41:11.717Z,45.41
2017-12-12T09:43:37.515Z,45.18
2017-12-12T09:46:03.363Z,46.00
2017-12-12T09:48:29.176Z,45.74
2017-12-12T09:50:54.960Z,45.17
2017-12-12T09:53:20.747Z,45.15
2017-12-12T09:55:47.340Z,44.06
2017-12-12T09:58:13.280Z,44.35
2017-12-12T10:00:41.097Z,45.83
2017-12-12T10:03:06.880Z,43.99
2017-12-12T10:05:32.700Z,44.87
2017-12-12T10:07:58.498Z,44.92
2017-12-12T10:10:24.296Z,44.03
2017-12-12T10:12:50.088Z,44.12
2017-12-12T10:15:16.024Z,45.25
2017-12-12T10:17:41.936Z,44.52
2017-12-12T10:20:07.872Z,44.45
2017-12-12T10:22:33.657Z,44.68
2017-12-12T10:24:59.613Z,44.34
2017-12-12T10:27:25.460Z,44.93
2017-12-12T10:29:51.264Z,44.41
2017-12-12T10:32:17.041Z,45.42
2017-12-12T10:34:42.868Z,45.65
2017-12-12T10:37:08.722Z,45.08
2017-12-12T10:39:34.588Z,44.36
2017-12-12T10:42:00.421Z,44.98
2017-12-12T10:44:26.255Z,45.12
2017-12-12T10:46:52.105Z,44.43
2017-12-12T10:49:17.909Z,44.95
2017-12-12T10:51:43.783Z,45.13
2017-12-12T10:54:09.650Z,44.03
2017-12-12T10:56:35.454Z,44.86
2017-12-12T10:59:01.249Z,45.56
2017-12-12T11:01:27.053Z,44.68
2017-12-12T11:03:52.848Z,45.25
2017-12-12T11:06:18.681Z,44.10
2017-12-12T11:08:44.480Z,44.30
2017-12-12T11:11:10.285Z,44.82
2017-12-12T11:13:36.072Z,45.41
2017-12-12T11:16:01.885Z,45.68
2017-12-12T11:18:27.669Z,44.55
2017-12-12T11:20:53.451Z,44.06
2017-12-12T11:23:19.231Z,44.83
2017-12-12T11:25:45.059Z,43.76
2017-12-12T11:28:10.892Z,44.03
2017-12-12T11:30:36.687Z,45.32
2017-12-12T11:33:02.531Z,44.74
2017-12-12T11:35:28.337Z,44.45
2017-12-12T11:37:54.120Z,44.05
2017-12-12T11:40:19.915Z,45.06
2017-12-12T11:42:45.703Z,44.70
2017-12-12T11:45:12.004Z,43.81
2017-12-12T11:47:37.794Z,45.10
2017-12-12T11:50:03.621Z,45.56
2017-12-12T11:52:29.429Z,44.91
2017-12-12T11:54:55.218Z,44.75
2017-12-12T11:57:21.019Z,45.22
2017-12-12T11:59:46.807Z,45.15
2017-12-12T12:02:12.627Z,44.34
2017-12-12T12:04:38.424Z,46.09
2017-12-12T12:07:04.213Z,45.62
2017-12-12T12:09:30.011Z,45.41
2017-12-12T12:11:55.817Z,45.92
2017-12-12T12:14:21.612Z,44.29
2017-12-12T12:16:47.451Z,44.02
2017-12-12T12:19:13.250Z,45.52
2017-12-12T12:21:39.068Z,45.67
2017-12-12T12:24:04.869Z,44.59
2017-12-12T12:26:30.684Z,45.56
2017-12-12T12:28:56.481Z,44.61
2017-12-12T12:31:22.292Z,45.13
2017-12-12T12:33:48.088Z,45.57
2017-12-12T12:36:13.937Z,44.53
2017-12-12T12:38:39.755Z,44.59
2017-12-12T12:41:05.608Z,44.86
2017-12-12T12:43:31.392Z,44.59
2017-12-12T12:45:57.190Z,44.93
2017-12-12T12:48:23.008Z,45.58
2017-12-12T12:50:48.790Z,46.46
2017-12-12T12:53:14.630Z,45.13
2017-12-12T12:58:12.864Z,45.65
2017-12-12T13:00:38.701Z,45.13
2017-12-12T13:03:04.489Z,44.70
2017-12-12T13:05:30.326Z,44.64
2017-12-12T13:07:56.127Z,45.08
2017-12-12T13:10:21.920Z,45.38
2017-12-12T13:12:47.710Z,44.54
2017-12-12T13:15:13.500Z,44.03
2017-12-12T13:17:39.304Z,45.66
2017-12-12T13:20:05.094Z,45.70
2017-12-12T13:22:30.880Z,44.53
2017-12-12T13:24:56.676Z,44.89
2017-12-12T13:27:22.465Z,44.97
2017-12-12T13:29:48.260Z,43.94
2017-12-12T13:32:14.061Z,44.29
2017-12-12T13:34:39.861Z,45.06
2017-12-12T13:37:05.660Z,44.11
2017-12-12T13:39:31.452Z,45.48
2017-12-12T13:41:57.304Z,44.40
2017-12-12T13:44:23.105Z,44.23
2017-12-12T13:46:48.904Z,43.85
2017-12-12T13:49:14.768Z,44.35
2017-12-12T13:51:40.567Z,44.33
2017-12-12T13:54:06.350Z,45.12
2017-12-12T13:56:32.152Z,44.83
2017-12-12T13:58:57.949Z,44.19
2017-12-12T14:01:23.732Z,43.51
2017-12-12T14:03:49.560Z,43.77
2017-12-12T14:06:15.360Z,44.87
2017-12-12T14:08:41.144Z,44.28
2017-12-12T14:11:06.923Z,44.46
2017-12-12T14:13:32.714Z,45.62
2017-12-12T14:15:58.534Z,44.00
2017-12-12T14:18:24.332Z,43.97
2017-12-12T14:20:50.124Z,45.20
2017-12-12T14:23:15.928Z,45.15
2017-12-12T14:25:41.715Z,44.40
2017-12-12T14:28:07.507Z,44.00
2017-12-12T14:30:33.312Z,44.46
2017-12-12T14:32:59.128Z,43.25
2017-12-12T14:35:24.939Z,44.29
2017-12-12T14:37:50.757Z,44.21
2017-12-12T14:40:19.623Z,45.35
2017-12-12T14:42:45.408Z,45.00
2017-12-12T14:45:11.186Z,44.43
2017-12-12T14:47:36.985Z,43.44
2017-12-12T14:50:02.763Z,43.78
2017-12-12T14:52:28.544Z,44.22
2017-12-12T14:54:54.344Z,44.92
2017-12-12T14:57:20.126Z,43.75
2017-12-12T14:59:45.910Z,44.50
2017-12-12T15:02:11.697Z,43.78
2017-12-12T15:04:37.484Z,44.00
2017-12-12T15:07:03.292Z,45.23
2017-12-12T15:09:29.068Z,44.28
2017-12-12T15:11:54.908Z,44.57
2017-12-12T15:14:20.705Z,44.09
2017-12-12T15:16:46.515Z,43.52
2017-12-12T15:19:12.303Z,45.67
2017-12-12T15:21:38.096Z,45.20
2017-12-12T15:24:03.887Z,45.10
2017-12-12T15:26:29.665Z,45.13
2017-12-12T15:28:55.492Z,44.07
2017-12-12T15:31:21.284Z,43.74
2017-12-12T15:33:47.080Z,44.09
2017-12-12T15:36:12.866Z,44.09
2017-12-12T15:38:38.658Z,44.53
2017-12-12T15:41:04.444Z,44.84
2017-12-12T15:43:30.235Z,44.91
2017-12-12T15:45:56.067Z,44.87
2017-12-12T15:48:21.858Z,44.56
2017-12-12T15:50:47.648Z,43.44
2017-12-12T15:53:13.449Z,44.24
2017-12-12T15:55:39.241Z,45.01
2017-12-12T15:58:05.070Z,44.93
2017-12-12T16:00:30.891Z,45.30
2017-12-12T16:02:56.681Z,45.10
2017-12-12T16:05:22.471Z,43.83
2017-12-12T16:07:48.260Z,44.56
2017-12-12T16:10:14.696Z,44.59
2017-12-12T16:12:40.480Z,44.90
2017-12-12T16:15:06.311Z,45.39
2017-12-12T16:17:32.087Z,45.19
2017-12-12T16:19:57.864Z,44.99
2017-12-12T16:22:23.643Z,44.07
2017-12-12T16:24:49.454Z,44.52
2017-12-12T16:27:15.293Z,45.13
2017-12-12T16:29:41.105Z,45.49
2017-12-12T16:32:06.906Z,44.81
2017-12-12T16:34:32.682Z,44.85
2017-12-12T16:36:58.552Z,44.87
2017-12-12T16:39:24.341Z,44.87
2017-12-12T16:41:50.161Z,44.64
2017-12-12T16:44:15.949Z,45.59
2017-12-12T16:46:41.746Z,45.25
2017-12-12T16:49:08.538Z,45.28
2017-12-12T16:51:34.354Z,44.11
2017-12-12T16:54:00.140Z,43.99
2017-12-12T16:56:25.964Z,45.16
2017-12-12T16:58:51.763Z,44.91
2017-12-12T17:01:17.543Z,44.75
2017-12-12T17:03:43.319Z,44.20
2017-12-12T17:06:09.096Z,43.98
2017-12-12T17:08:34.881Z,44.53
2017-12-12T17:11:00.670Z,44.13
2017-12-12T17:13:26.446Z,43.96
2017-12-12T17:15:52.271Z,43.95
2017-12-12T17:18:18.047Z,44.74
2017-12-12T17:20:43.835Z,45.51
2017-12-12T17:23:09.618Z,44.26
2017-12-12T17:25:35.401Z,45.12
2017-12-12T17:28:01.313Z,44.97
2017-12-12T17:30:27.086Z,44.35
2017-12-12T17:32:52.868Z,44.98
2017-12-12T17:35:18.648Z,44.61
2017-12-12T17:37:44.419Z,44.54
2017-12-12T17:40:10.204Z,45.50
2017-12-12T17:42:35.983Z,45.04
2017-12-12T17:45:01.763Z,45.17
2017-12-12T17:47:27.544Z,44.20
2017-12-12T17:49:53.353Z,45.53
2017-12-12T17:52:19.137Z,45.52
2017-12-12T17:54:44.952Z,44.74
2017-12-12T17:57:10.737Z,45.01
2017-12-12T17:59:36.710Z,45.57
2017-12-12T18:02:02.573Z,44.35
2017-12-12T18:04:28.443Z,44.53
2017-12-12T18:06:54.261Z,45.53
2017-12-12T18:09:20.045Z,45.20
2017-12-12T18:11:45.824Z,45.82
2017-12-12T18:14:11.595Z,45.29
2017-12-12T18:16:37.413Z,45.44
2017-12-12T18:19:03.196Z,44.65
2017-12-12T18:21:28.972Z,44.92
2017-12-12T18:23:54.751Z,45.22
2017-12-12T18:26:20.572Z,45.22
2017-12-12T18:28:46.354Z,44.96
2017-12-12T18:31:12.133Z,45.75
2017-12-12T18:33:37.914Z,45.30
2017-12-12T18:36:03.935Z,45.33
2017-12-12T18:38:29.715Z,45.27
2017-12-12T18:40:55.493Z,45.37
2017-12-12T18:43:21.465Z,47.05
2017-12-12T18:45:47.276Z,46.02
2017-12-12T18:48:13.207Z,45.88
2017-12-12T18:50:38.998Z,45.81
2017-12-12T18:53:04.830Z,45.72
2017-12-12T18:55:30.631Z,45.54
2017-12-12T18:57:56.419Z,44.89
2017-12-12T19:00:22.237Z,44.86
2017-12-12T19:02:48.028Z,44.58
2017-12-12T19:05:13.853Z,45.27
2017-12-12T19:07:39.641Z,45.36
2017-12-12T19:10:05.489Z,45.00
2017-12-12T19:12:31.316Z,45.57
2017-12-12T19:14:57.106Z,45.03
2017-12-12T19:17:22.887Z,45.08
2017-12-12T19:19:48.668Z,44.32
2017-12-12T19:22:14.468Z,44.59
2017-12-12T19:24:40.249Z,44.95
2017-12-12T19:27:06.281Z,44.88
2017-12-12T19:29:32.068Z,44.47
2017-12-12T19:31:57.856Z,43.93
2017-12-12T19:34:23.783Z,44.16
2017-12-12T19:36:49.580Z,43.97
2017-12-12T19:39:15.376Z,44.02
2017-12-12T19:41:41.204Z,44.04
2017-12-12T19:44:06.992Z,44.02
2017-12-12T19:46:32.804Z,43.44
2017-12-12T19:48:58.636Z,43.87
2017-12-12T19:51:24.420Z,43.95
2017-12-12T19:53:50.245Z,43.82
2017-12-12T19:56:16.036Z,43.71
2017-12-12T19:58:41.904Z,43.38
2017-12-12T20:01:07.704Z,43.22
2017-12-12T20:03:34.276Z,43.50
2017-12-12T20:06:00.092Z,43.49
2017-12-12T20:08:25.924Z,43.67
2017-12-12T20:10:51.721Z,44.02
2017-12-12T20:13:17.521Z,43.40
2017-12-12T20:15:43.312Z,43.14
2017-12-12T20:18:09.089Z,43.05
2017-12-12T20:20:35.067Z,43.09
2017-12-12T20:23:00.859Z,43.10
2017-12-12T20:25:26.865Z,42.96
2017-12-12T20:27:52.659Z,42.93
2017-12-12T20:30:18.472Z,42.72
2017-12-12T20:32:44.265Z,42.75
2017-12-12T20:35:10.120Z,42.86
2017-12-12T20:37:36.006Z,42.95
2017-12-12T20:40:01.841Z,43.08
2017-12-12T20:42:27.748Z,42.91
2017-12-12T20:44:53.532Z,42.70
2017-12-12T20:47:19.508Z,42.67
2017-12-12T20:49:45.312Z,42.99
2017-12-12T20:52:11.212Z,42.74
2017-12-12T20:54:37.119Z,42.83
2017-12-12T20:57:02.971Z,42.69
2017-12-12T20:59:28.755Z,42.38
2017-12-12T21:01:54.548Z,42.60
2017-12-12T21:04:20.334Z,44.74
2017-12-12T21:06:46.112Z,44.82
2017-12-12T21:09:11.929Z,43.41
2017-12-12T21:11:37.804Z,43.17
2017-12-12T21:14:03.629Z,44.01
2017-12-12T21:16:29.442Z,42.83
2017-12-12T21:18:57.293Z,42.98
2017-12-12T21:24:31.581Z,44.13
2017-12-12T21:26:57.573Z,44.49
2017-12-12T21:29:23.500Z,43.29
2017-12-12T21:31:49.454Z,42.81
2017-12-12T21:34:29.611Z,44.28
2017-12-12T21:36:55.434Z,43.27
2017-12-12T21:39:21.257Z,43.44
2017-12-12T21:41:47.034Z,43.27
2017-12-12T21:44:12.829Z,43.00
2017-12-12T21:46:38.653Z,42.74
2017-12-12T21:49:10.409Z,43.25
2017-12-12T21:51:36.220Z,43.59
2017-12-12T21:54:12.488Z,42.95
2017-12-12T21:56:38.311Z,43.80
2017-12-12T21:59:04.107Z,42.96
2017-12-12T22:01:30.033Z,42.68
2017-12-12T22:03:55.836Z,44.38
2017-12-12T22:06:21.623Z,44.76
2017-12-12T22:08:47.448Z,43.51
2017-12-12T22:11:18.280Z,43.65
2017-12-12T22:13:44.107Z,43.03
2017-12-12T22:16:09.899Z,42.82
2017-12-12T22:18:35.725Z,42.55
2017-12-12T22:21:01.695Z,42.70
2017-12-12T22:23:27.489Z,43.15
2017-12-12T22:25:53.277Z,43.22
2017-12-12T22:28:19.060Z,42.74
2017-12-12T22:30:44.849Z,42.52
2017-12-12T22:33:10.693Z,43.29
2017-12-12T22:35:36.521Z,42.64
2017-12-12T22:38:02.328Z,42.94
2017-12-12T22:40:28.268Z,42.63
2017-12-12T22:42:54.056Z,42.50
2017-12-12T22:45:19.845Z,42.24
2017-12-12T22:47:45.631Z,42.23
2017-12-12T22:50:11.563Z,42.46
2017-12-12T22:52:37.348Z,42.73
2017-12-12T22:55:03.144Z,42.80
2017-12-12T22:57:28.932Z,42.53
2017-12-12T22:59:54.716Z,42.30
2017-12-12T23:02:20.496Z,42.13
2017-12-12T23:04:46.271Z,42.24
2017-12-12T23:07:12.048Z,43.23
2017-12-12T23:09:38.131Z,42.91
2017-12-12T23:12:03.957Z,43.44
2017-12-12T23:14:29.732Z,43.87
2017-12-12T23:16:55.512Z,44.85
2017-12-12T23:19:21.287Z,42.90
2017-12-12T23:21:47.080Z,43.57
2017-12-12T23:24:12.868Z,44.30
2017-12-12T23:26:38.644Z,43.47
2017-12-12T23:29:04.430Z,43.38
2017-12-12T23:31:30.403Z,44.33
2017-12-12T23:33:56.188Z,43.16
2017-12-12T23:36:22.003Z,42.74
2017-12-12T23:38:47.832Z,42.79
2017-12-12T23:41:13.614Z,43.79
2017-12-12T23:43:39.458Z,42.95
2017-12-12T23:46:05.248Z,43.80
2017-12-12T23:48:31.061Z,43.34
2017-12-12T23:50:56.844Z,42.67
2017-12-12T23:53:22.684Z,42.54
2017-12-12T23:55:48.474Z,42.80
2017-12-12T23:58:14.300Z,43.28
